sensor_id;sensor_type;location;lat;lon;timestamp;temperature;humidity
28546;DHT22;15749;49.606;8.738;2023-10-13T03:17:57;22.50;99.90
28546;DHT22;15749;49.606;8.738;2023-10-13T03:20:27;22.50;99.90
28546;DHT22;15749;49.606;8.738;2023-10-13T03:22:59;22.50;99.90
28546;DHT22;15749;49.606;8.738;2023-10-13T03:25:30;22.50;99.90
28546;DHT22;15749;49.606;8.738;2023-10-13T03:28:10;22.50;99.90
28546;DHT22;15749;49.606;8.738;2023-10-13T03:30:42;22.50;99.90
28546;DHT22;15749;49.606;8.738;2023-10-13T03:33:13;22.50;99.90
28546;DHT22;15749;49.606;8.738;2023-10-13T03:35:54;22.50;99.90
28546;DHT22;15749;49.606;8.738;2023-10-13T03:38:33;22.50;99.90
28546;DHT22;15749;49.606;8.738;2023-10-13T03:41:07;22.50;99.90
28546;DHT22;15749;49.606;8.738;2023-10-13T03:43:46;22.50;99.90
28546;DHT22;15749;49.606;8.738;2023-10-13T03:46:20;22.50;99.90
28546;DHT22;15749;49.606;8.738;2023-10-13T03:48:52;22.50;99.90
28546;DHT22;15749;49.606;8.738;2023-10-13T03:51:22;22.50;99.90
28546;DHT22;15749;49.606;8.738;2023-10-13T03:54:00;22.50;99.90
28546;DHT22;15749;49.606;8.738;2023-10-13T03:56:36;22.50;99.90
28546;DHT22;15749;49.606;8.738;2023-10-13T03:59:09;22.50;99.90
28546;DHT22;15749;49.606;8.738;2023-10-13T04:01:47;22.50;99.90
28546;DHT22;15749;49.606;8.738;2023-10-13T04:04:28;22.50;99.90
28546;DHT22;15749;49.606;8.738;2023-10-13T04:07:10;22.50;99.90
28546;DHT22;15749;49.606;8.738;2023-10-13T04:09:48;22.50;99.90
28546;DHT22;15749;49.606;8.738;2023-10-13T04:12:43;22.50;99.90
28546;DHT22;15749;49.606;8.738;2023-10-13T04:15:30;22.50;99.90
28546;DHT22;15749;49.606;8.738;2023-10-13T04:18:09;22.50;99.90
28546;DHT22;15749;49.606;8.738;2023-10-13T04:21:03;22.50;99.90
28546;DHT22;15749;49.606;8.738;2023-10-13T04:23:57;22.50;99.90
28546;DHT22;15749;49.606;8.738;2023-10-13T04:26:49;22.50;99.90
28546;DHT22;15749;49.606;8.738;2023-10-13T04:29:46;22.50;99.90
28546;DHT22;15749;49.606;8.738;2023-10-13T04:32:18;22.50;99.90
28546;DHT22;15749;49.606;8.738;2023-10-13T04:34:59;22.50;99.90
28546;DHT22;15749;49.606;8.738;2023-10-13T04:37:40;22.50;99.90
28546;DHT22;15749;49.606;8.738;2023-10-13T04:40:19;22.50;99.90
28546;DHT22;15749;49.606;8.738;2023-10-13T04:42:53;22.50;99.90
28546;DHT22;15749;49.606;8.738;2023-10-13T04:45:28;22.50;99.90
28546;DHT22;15749;49.606;8.738;2023-10-13T04:48:07;22.60;99.90
28546;DHT22;15749;49.606;8.738;2023-10-13T04:50:47;22.50;99.90
28546;DHT22;15749;49.606;8.738;2023-10-13T04:53:19;22.50;99.90
28546;DHT22;15749;49.606;8.738;2023-10-13T04:55:58;22.50;99.90
28546;DHT22;15749;49.606;8.738;2023-10-13T04:58:58;22.60;99.90
28546;DHT22;15749;49.606;8.738;2023-10-13T05:02:01;22.60;99.90
28546;DHT22;15749;49.606;8.738;2023-10-13T05:04:44;22.60;99.90
28546;DHT22;15749;49.606;8.738;2023-10-13T05:07:31;22.60;99.90
28546;DHT22;15749;49.606;8.738;2023-10-13T05:10:19;22.60;99.90
28546;DHT22;15749;49.606;8.738;2023-10-13T05:13:06;22.60;99.90
28546;DHT22;15749;49.606;8.738;2023-10-13T05:15:53;22.60;99.90
28546;DHT22;15749;49.606;8.738;2023-10-13T05:18:39;22.60;99.90
28546;DHT22;15749;49.606;8.738;2023-10-13T05:21:26;22.60;99.90
28546;DHT22;15749;49.606;8.738;2023-10-13T05:24:13;22.60;99.90
28546;DHT22;15749;49.606;8.738;2023-10-13T05:27:02;22.60;99.90
28546;DHT22;15749;49.606;8.738;2023-10-13T05:29:48;22.60;99.90
28546;DHT22;15749;49.606;8.738;2023-10-13T05:32:50;22.60;99.90
28546;DHT22;15749;49.606;8.738;2023-10-13T05:35:37;22.60;99.90
28546;DHT22;15749;49.606;8.738;2023-10-13T05:38:24;22.60;99.90
28546;DHT22;15749;49.606;8.738;2023-10-13T05:41:10;22.60;99.90
28546;DHT22;15749;49.606;8.738;2023-10-13T05:44:07;22.60;99.90
28546;DHT22;15749;49.606;8.738;2023-10-13T05:46:54;22.60;99.90
28546;DHT22;15749;49.606;8.738;2023-10-13T05:50:13;22.60;99.90
28546;DHT22;15749;49.606;8.738;2023-10-13T05:52:56;22.60;99.90
28546;DHT22;15749;49.606;8.738;2023-10-13T05:55:43;22.60;99.90
28546;DHT22;15749;49.606;8.738;2023-10-13T05:58:30;22.60;99.90
28546;DHT22;15749;49.606;8.738;2023-10-13T06:01:18;22.60;99.90
28546;DHT22;15749;49.606;8.738;2023-10-13T06:04:05;22.60;99.90
28546;DHT22;15749;49.606;8.738;2023-10-13T06:06:52;22.60;99.90
28546;DHT22;15749;49.606;8.738;2023-10-13T06:09:44;22.60;99.90
28546;DHT22;15749;49.606;8.738;2023-10-13T06:12:48;22.60;99.90
28546;DHT22;15749;49.606;8.738;2023-10-13T06:15:36;22.60;99.90
28546;DHT22;15749;49.606;8.738;2023-10-13T06:18:24;22.60;99.90
28546;DHT22;15749;49.606;8.738;2023-10-13T06:21:11;22.60;99.90
28546;DHT22;15749;49.606;8.738;2023-10-13T06:23:57;22.60;99.90
28546;DHT22;15749;49.606;8.738;2023-10-13T06:26:47;22.60;99.90
28546;DHT22;15749;49.606;8.738;2023-10-13T06:29:34;22.60;99.90
28546;DHT22;15749;49.606;8.738;2023-10-13T06:32:06;22.60;99.90
28546;DHT22;15749;49.606;8.738;2023-10-13T06:34:43;22.60;99.90
28546;DHT22;15749;49.606;8.738;2023-10-13T06:37:13;22.60;99.90
28546;DHT22;15749;49.606;8.738;2023-10-13T06:39:53;22.60;99.90
28546;DHT22;15749;49.606;8.738;2023-10-13T06:42:24;22.60;99.90
28546;DHT22;15749;49.606;8.738;2023-10-13T06:44:55;22.70;99.90
28546;DHT22;15749;49.606;8.738;2023-10-13T06:47:24;22.60;99.90
28546;DHT22;15749;49.606;8.738;2023-10-13T06:49:57;22.70;99.90
28546;DHT22;15749;49.606;8.738;2023-10-13T06:52:27;22.70;99.90
28546;DHT22;15749;49.606;8.738;2023-10-13T06:54:58;22.70;99.90
28546;DHT22;15749;49.606;8.738;2023-10-13T06:57:32;22.70;99.90
28546;DHT22;15749;49.606;8.738;2023-10-13T07:00:06;22.80;99.90
28546;DHT22;15749;49.606;8.738;2023-10-13T07:02:39;22.70;99.90
28546;DHT22;15749;49.606;8.738;2023-10-13T07:05:10;22.80;99.90
28546;DHT22;15749;49.606;8.738;2023-10-13T07:07:41;22.80;99.90
28546;DHT22;15749;49.606;8.738;2023-10-13T07:10:12;22.80;99.90
28546;DHT22;15749;49.606;8.738;2023-10-13T07:12:41;22.80;99.90
28546;DHT22;15749;49.606;8.738;2023-10-13T07:15:11;22.80;99.90
28546;DHT22;15749;49.606;8.738;2023-10-13T07:17:47;22.80;99.90
28546;DHT22;15749;49.606;8.738;2023-10-13T07:20:24;22.90;99.90
28546;DHT22;15749;49.606;8.738;2023-10-13T07:23:01;22.90;99.90
28546;DHT22;15749;49.606;8.738;2023-10-13T07:25:32;22.90;99.90
28546;DHT22;15749;49.606;8.738;2023-10-13T07:28:05;22.90;99.90
28546;DHT22;15749;49.606;8.738;2023-10-13T07:30:37;22.90;99.90
28546;DHT22;15749;49.606;8.738;2023-10-13T07:33:10;23.00;99.90
28546;DHT22;15749;49.606;8.738;2023-10-13T07:35:43;23.00;99.90
28546;DHT22;15749;49.606;8.738;2023-10-13T07:38:17;23.00;99.90
28546;DHT22;15749;49.606;8.738;2023-10-13T07:40:49;23.00;99.90
28546;DHT22;15749;49.606;8.738;2023-10-13T07:43:20;23.10;99.90
28546;DHT22;15749;49.606;8.738;2023-10-13T07:45:50;23.10;99.90
28546;DHT22;15749;49.606;8.738;2023-10-13T07:48:20;23.10;99.90
28546;DHT22;15749;49.606;8.738;2023-10-13T07:51:01;23.20;99.90
28546;DHT22;15749;49.606;8.738;2023-10-13T07:53:31;23.20;99.90
28546;DHT22;15749;49.606;8.738;2023-10-13T07:56:03;23.30;99.90
28546;DHT22;15749;49.606;8.738;2023-10-13T07:58:34;23.30;99.90
28546;DHT22;15749;49.606;8.738;2023-10-13T08:01:04;23.30;99.90
28546;DHT22;15749;49.606;8.738;2023-10-13T08:03:36;23.40;99.90
28546;DHT22;15749;49.606;8.738;2023-10-13T08:06:15;23.40;99.90
28546;DHT22;15749;49.606;8.738;2023-10-13T08:08:49;23.40;99.90
28546;DHT22;15749;49.606;8.738;2023-10-13T08:11:21;23.50;99.90
28546;DHT22;15749;49.606;8.738;2023-10-13T08:13:59;23.50;99.90
28546;DHT22;15749;49.606;8.738;2023-10-13T08:16:42;23.60;99.90
28546;DHT22;15749;49.606;8.738;2023-10-13T08:19:19;23.70;99.90
28546;DHT22;15749;49.606;8.738;2023-10-13T08:21:59;23.70;99.90
28546;DHT22;15749;49.606;8.738;2023-10-13T08:24:50;23.70;99.90
28546;DHT22;15749;49.606;8.738;2023-10-13T08:27:43;23.80;99.90
28546;DHT22;15749;49.606;8.738;2023-10-13T08:30:33;23.90;99.90
28546;DHT22;15749;49.606;8.738;2023-10-13T08:33:22;24.00;99.90
28546;DHT22;15749;49.606;8.738;2023-10-13T08:35:55;24.10;99.90
28546;DHT22;15749;49.606;8.738;2023-10-13T08:38:47;24.10;99.90
28546;DHT22;15749;49.606;8.738;2023-10-13T08:41:20;24.20;99.90
28546;DHT22;15749;49.606;8.738;2023-10-13T08:44:03;24.20;99.90
28546;DHT22;15749;49.606;8.738;2023-10-13T08:46:34;24.30;99.90
28546;DHT22;15749;49.606;8.738;2023-10-13T08:49:33;24.30;99.90
28546;DHT22;15749;49.606;8.738;2023-10-13T08:52:19;24.40;99.90
28546;DHT22;15749;49.606;8.738;2023-10-13T08:55:17;24.50;99.90
28546;DHT22;15749;49.606;8.738;2023-10-13T08:58:16;24.60;99.90
28546;DHT22;15749;49.606;8.738;2023-10-13T09:00:53;24.60;99.90
28546;DHT22;15749;49.606;8.738;2023-10-13T09:03:40;24.70;99.90
28546;DHT22;15749;49.606;8.738;2023-10-13T09:06:13;24.70;99.90
28546;DHT22;15749;49.606;8.738;2023-10-13T09:08:43;24.80;99.90
28546;DHT22;15749;49.606;8.738;2023-10-13T09:11:35;24.80;99.90
28546;DHT22;15749;49.606;8.738;2023-10-13T09:14:17;24.90;99.90
28546;DHT22;15749;49.606;8.738;2023-10-13T09:17:04;25.00;99.90
28546;DHT22;15749;49.606;8.738;2023-10-13T09:19:46;25.10;99.90
28546;DHT22;15749;49.606;8.738;2023-10-13T09:22:24;25.20;99.90
28546;DHT22;15749;49.606;8.738;2023-10-13T09:24:56;25.30;99.90
28546;DHT22;15749;49.606;8.738;2023-10-13T09:27:30;25.40;99.90
28546;DHT22;15749;49.606;8.738;2023-10-13T09:30:01;25.50;99.90
28546;DHT22;15749;49.606;8.738;2023-10-13T09:32:36;25.60;99.90
28546;DHT22;15749;49.606;8.738;2023-10-13T09:35:18;25.70;99.90
28546;DHT22;15749;49.606;8.738;2023-10-13T09:37:47;25.80;99.90
28546;DHT22;15749;49.606;8.738;2023-10-13T09:40:17;25.90;99.90
28546;DHT22;15749;49.606;8.738;2023-10-13T09:42:58;26.00;99.90
28546;DHT22;15749;49.606;8.738;2023-10-13T09:45:29;26.10;99.90
28546;DHT22;15749;49.606;8.738;2023-10-13T09:48:02;26.20;99.90
28546;DHT22;15749;49.606;8.738;2023-10-13T09:50:37;26.30;99.90
28546;DHT22;15749;49.606;8.738;2023-10-13T09:53:08;26.50;99.90
28546;DHT22;15749;49.606;8.738;2023-10-13T09:55:44;26.60;99.90
28546;DHT22;15749;49.606;8.738;2023-10-13T09:58:17;26.70;99.90
28546;DHT22;15749;49.606;8.738;2023-10-13T10:00:50;26.80;99.90
28546;DHT22;15749;49.606;8.738;2023-10-13T10:19:28;27.30;99.90
28546;DHT22;15749;49.606;8.738;2023-10-13T10:22:01;27.40;99.90
28546;DHT22;15749;49.606;8.738;2023-10-13T10:24:40;27.40;99.90
28546;DHT22;15749;49.606;8.738;2023-10-13T10:27:10;27.40;99.90
28546;DHT22;15749;49.606;8.738;2023-10-13T10:29:53;27.40;99.90
28546;DHT22;15749;49.606;8.738;2023-10-13T10:32:35;27.50;99.90
28546;DHT22;15749;49.606;8.738;2023-10-13T10:35:08;27.50;99.90
28546;DHT22;15749;49.606;8.738;2023-10-13T10:37:43;27.50;99.90
28546;DHT22;15749;49.606;8.738;2023-10-13T10:40:17;27.60;99.90
28546;DHT22;15749;49.606;8.738;2023-10-13T10:56:18;27.90;99.90
28546;DHT22;15749;49.606;8.738;2023-10-13T10:59:05;27.80;99.90
28546;DHT22;15749;49.606;8.738;2023-10-13T11:01:43;27.80;99.90
28546;DHT22;15749;49.606;8.738;2023-10-13T11:04:16;27.80;99.90
28546;DHT22;15749;49.606;8.738;2023-10-13T11:06:54;27.70;99.90
28546;DHT22;15749;49.606;8.738;2023-10-13T11:09:24;27.70;99.90
28546;DHT22;15749;49.606;8.738;2023-10-13T11:12:13;27.70;99.90
28546;DHT22;15749;49.606;8.738;2023-10-13T11:14:44;27.70;99.90
28546;DHT22;15749;49.606;8.738;2023-10-13T11:17:21;27.70;99.90
28546;DHT22;15749;49.606;8.738;2023-10-13T11:19:53;27.70;99.90
28546;DHT22;15749;49.606;8.738;2023-10-13T11:22:23;27.70;99.90
28546;DHT22;15749;49.606;8.738;2023-10-13T11:25:02;27.70;99.90
28546;DHT22;15749;49.606;8.738;2023-10-13T11:27:42;27.60;99.90
28546;DHT22;15749;49.606;8.738;2023-10-13T11:30:27;27.70;99.90
28546;DHT22;15749;49.606;8.738;2023-10-13T11:33:10;27.60;99.90
28546;DHT22;15749;49.606;8.738;2023-10-13T11:35:40;27.60;99.90
28546;DHT22;15749;49.606;8.738;2023-10-13T11:38:24;27.60;99.90
28546;DHT22;15749;49.606;8.738;2023-10-13T11:40:55;27.60;99.90
28546;DHT22;15749;49.606;8.738;2023-10-13T11:43:46;27.50;99.90
28546;DHT22;15749;49.606;8.738;2023-10-13T11:46:29;27.50;99.90
28546;DHT22;15749;49.606;8.738;2023-10-13T11:49:22;27.50;99.90
28546;DHT22;15749;49.606;8.738;2023-10-13T11:52:05;27.40;99.90
28546;DHT22;15749;49.606;8.738;2023-10-13T11:54:46;27.40;99.90
28546;DHT22;15749;49.606;8.738;2023-10-13T11:57:15;27.40;99.90
28546;DHT22;15749;49.606;8.738;2023-10-13T11:59:49;27.40;99.90
28546;DHT22;15749;49.606;8.738;2023-10-13T12:02:44;27.30;99.90
28546;DHT22;15749;49.606;8.738;2023-10-13T12:05:32;27.40;99.90
28546;DHT22;15749;49.606;8.738;2023-10-13T12:08:17;27.30;99.90
28546;DHT22;15749;49.606;8.738;2023-10-13T12:11:00;27.30;99.90
28546;DHT22;15749;49.606;8.738;2023-10-13T12:13:49;27.30;99.90
28546;DHT22;15749;49.606;8.738;2023-10-13T12:16:21;27.30;99.90
28546;DHT22;15749;49.606;8.738;2023-10-13T12:18:50;27.30;99.90
28546;DHT22;15749;49.606;8.738;2023-10-13T12:21:23;27.30;99.90
28546;DHT22;15749;49.606;8.738;2023-10-13T12:23:52;27.30;99.90
28546;DHT22;15749;49.606;8.738;2023-10-13T12:26:21;27.30;99.90
28546;DHT22;15749;49.606;8.738;2023-10-13T12:29:00;27.30;99.90
28546;DHT22;15749;49.606;8.738;2023-10-13T12:31:36;27.40;99.90
28546;DHT22;15749;49.606;8.738;2023-10-13T12:34:07;27.30;99.90
28546;DHT22;15749;49.606;8.738;2023-10-13T12:36:46;27.30;99.90
28546;DHT22;15749;49.606;8.738;2023-10-13T12:39:33;27.30;99.90
28546;DHT22;15749;49.606;8.738;2023-10-13T12:42:20;27.30;99.90
28546;DHT22;15749;49.606;8.738;2023-10-13T12:45:07;27.30;99.90
28546;DHT22;15749;49.606;8.738;2023-10-13T12:47:55;27.40;99.90
28546;DHT22;15749;49.606;8.738;2023-10-13T12:50:41;27.40;99.90
28546;DHT22;15749;49.606;8.738;2023-10-13T12:53:25;27.40;99.90
28546;DHT22;15749;49.606;8.738;2023-10-13T12:56:01;27.40;99.90
28546;DHT22;15749;49.606;8.738;2023-10-13T12:58:32;27.40;99.90
28546;DHT22;15749;49.606;8.738;2023-10-13T13:01:01;27.40;99.90
28546;DHT22;15749;49.606;8.738;2023-10-13T13:03:35;27.40;99.90
28546;DHT22;15749;49.606;8.738;2023-10-13T13:06:16;27.40;99.90
28546;DHT22;15749;49.606;8.738;2023-10-13T13:08:45;27.40;99.90
28546;DHT22;15749;49.606;8.738;2023-10-13T13:11:14;27.40;99.90
28546;DHT22;15749;49.606;8.738;2023-10-13T13:13:44;27.40;99.90
28546;DHT22;15749;49.606;8.738;2023-10-13T13:16:14;27.40;99.90
28546;DHT22;15749;49.606;8.738;2023-10-13T13:18:47;27.40;99.90
28546;DHT22;15749;49.606;8.738;2023-10-13T13:21:16;27.40;99.90
28546;DHT22;15749;49.606;8.738;2023-10-13T13:23:51;27.40;99.90
28546;DHT22;15749;49.606;8.738;2023-10-13T13:26:22;27.40;99.90
28546;DHT22;15749;49.606;8.738;2023-10-13T13:28:52;27.40;99.90
28546;DHT22;15749;49.606;8.738;2023-10-13T13:31:21;27.40;99.90
28546;DHT22;15749;49.606;8.738;2023-10-13T13:33:55;27.40;99.90
28546;DHT22;15749;49.606;8.738;2023-10-13T13:36:24;27.40;99.90
28546;DHT22;15749;49.606;8.738;2023-10-13T13:38:53;27.40;99.90
28546;DHT22;15749;49.606;8.738;2023-10-13T13:41:28;27.40;99.90
28546;DHT22;15749;49.606;8.738;2023-10-13T13:44:00;27.30;99.90
28546;DHT22;15749;49.606;8.738;2023-10-13T13:46:41;27.40;99.90
28546;DHT22;15749;49.606;8.738;2023-10-13T13:49:12;27.30;99.90
28546;DHT22;15749;49.606;8.738;2023-10-13T13:51:47;27.30;99.90
28546;DHT22;15749;49.606;8.738;2023-10-13T13:54:22;27.30;99.90
28546;DHT22;15749;49.606;8.738;2023-10-13T13:56:55;27.30;99.90
28546;DHT22;15749;49.606;8.738;2023-10-13T13:59:25;27.30;99.90
28546;DHT22;15749;49.606;8.738;2023-10-13T14:01:54;27.30;99.90
28546;DHT22;15749;49.606;8.738;2023-10-13T14:04:28;27.30;99.90
28546;DHT22;15749;49.606;8.738;2023-10-13T14:06:59;27.30;99.90
28546;DHT22;15749;49.606;8.738;2023-10-13T14:09:34;27.30;99.90
28546;DHT22;15749;49.606;8.738;2023-10-13T14:12:08;27.30;99.90
28546;DHT22;15749;49.606;8.738;2023-10-13T14:14:57;27.30;99.90
28546;DHT22;15749;49.606;8.738;2023-10-13T14:17:29;27.30;99.90
28546;DHT22;15749;49.606;8.738;2023-10-13T14:20:05;27.30;99.90
28546;DHT22;15749;49.606;8.738;2023-10-13T14:22:43;27.30;99.90
28546;DHT22;15749;49.606;8.738;2023-10-13T14:25:15;27.30;99.90
28546;DHT22;15749;49.606;8.738;2023-10-13T14:27:46;27.30;99.90
28546;DHT22;15749;49.606;8.738;2023-10-13T14:30:15;27.30;99.90
28546;DHT22;15749;49.606;8.738;2023-10-13T14:32:48;27.30;99.90
28546;DHT22;15749;49.606;8.738;2023-10-13T14:35:18;27.30;99.90
28546;DHT22;15749;49.606;8.738;2023-10-13T14:37:48;27.30;99.90
28546;DHT22;15749;49.606;8.738;2023-10-13T14:40:17;27.20;99.90
28546;DHT22;15749;49.606;8.738;2023-10-13T14:42:49;27.20;99.90
28546;DHT22;15749;49.606;8.738;2023-10-13T14:45:18;27.30;99.90
28546;DHT22;15749;49.606;8.738;2023-10-13T14:47:47;27.30;99.90
28546;DHT22;15749;49.606;8.738;2023-10-13T14:50:18;27.20;99.90
28546;DHT22;15749;49.606;8.738;2023-10-13T14:52:48;27.20;99.90
28546;DHT22;15749;49.606;8.738;2023-10-13T14:55:19;27.20;99.90
28546;DHT22;15749;49.606;8.738;2023-10-13T14:57:49;27.20;99.90
28546;DHT22;15749;49.606;8.738;2023-10-13T15:00:19;27.20;99.90
28546;DHT22;15749;49.606;8.738;2023-10-13T15:02:53;27.20;99.90
28546;DHT22;15749;49.606;8.738;2023-10-13T15:05:24;27.20;99.90
28546;DHT22;15749;49.606;8.738;2023-10-13T15:07:57;27.20;99.90
28546;DHT22;15749;49.606;8.738;2023-10-13T15:10:27;27.20;99.90
28546;DHT22;15749;49.606;8.738;2023-10-13T15:12:56;27.20;99.90
28546;DHT22;15749;49.606;8.738;2023-10-13T15:15:27;27.20;99.90
28546;DHT22;15749;49.606;8.738;2023-10-13T15:18:00;27.20;99.90
28546;DHT22;15749;49.606;8.738;2023-10-13T15:20:30;27.20;99.90
28546;DHT22;15749;49.606;8.738;2023-10-13T15:23:00;27.20;99.90
28546;DHT22;15749;49.606;8.738;2023-10-13T15:25:29;27.20;99.90
28546;DHT22;15749;49.606;8.738;2023-10-13T15:28:07;27.20;99.90
28546;DHT22;15749;49.606;8.738;2023-10-13T15:30:37;27.20;99.90
28546;DHT22;15749;49.606;8.738;2023-10-13T15:33:19;27.20;99.90
28546;DHT22;15749;49.606;8.738;2023-10-13T15:35:50;27.20;99.90
28546;DHT22;15749;49.606;8.738;2023-10-13T15:38:19;27.20;99.90
28546;DHT22;15749;49.606;8.738;2023-10-13T15:40:50;27.20;99.90
28546;DHT22;15749;49.606;8.738;2023-10-13T15:43:23;27.20;99.90
28546;DHT22;15749;49.606;8.738;2023-10-13T15:45:52;27.20;99.90
28546;DHT22;15749;49.606;8.738;2023-10-13T15:48:22;27.20;99.90
28546;DHT22;15749;49.606;8.738;2023-10-13T15:50:54;27.10;99.90
28546;DHT22;15749;49.606;8.738;2023-10-13T15:53:23;27.20;99.90
28546;DHT22;15749;49.606;8.738;2023-10-13T15:55:53;27.10;99.90
28546;DHT22;15749;49.606;8.738;2023-10-13T15:58:22;27.10;99.90
28546;DHT22;15749;49.606;8.738;2023-10-13T16:00:53;27.10;99.90
28546;DHT22;15749;49.606;8.738;2023-10-13T16:03:24;27.10;99.90
28546;DHT22;15749;49.606;8.738;2023-10-13T16:05:56;27.10;99.90
28546;DHT22;15749;49.606;8.738;2023-10-13T16:08:27;27.10;99.90
28546;DHT22;15749;49.606;8.738;2023-10-13T16:11:04;27.10;99.90
28546;DHT22;15749;49.606;8.738;2023-10-13T16:13:35;27.10;99.90
28546;DHT22;15749;49.606;8.738;2023-10-13T16:16:05;27.10;99.90
28546;DHT22;15749;49.606;8.738;2023-10-13T16:18:34;27.10;99.90
28546;DHT22;15749;49.606;8.738;2023-10-13T16:21:04;27.10;99.90
28546;DHT22;15749;49.606;8.738;2023-10-13T16:23:35;27.10;99.90
28546;DHT22;15749;49.606;8.738;2023-10-13T16:26:08;27.10;99.90
28546;DHT22;15749;49.606;8.738;2023-10-13T16:28:44;27.10;99.90
28546;DHT22;15749;49.606;8.738;2023-10-13T16:31:17;27.10;99.90
28546;DHT22;15749;49.606;8.738;2023-10-13T16:33:50;27.00;99.90
28546;DHT22;15749;49.606;8.738;2023-10-13T16:36:25;27.00;99.90
28546;DHT22;15749;49.606;8.738;2023-10-13T16:38:55;27.00;99.90
28546;DHT22;15749;49.606;8.738;2023-10-13T16:41:26;27.00;99.90
28546;DHT22;15749;49.606;8.738;2023-10-13T16:43:56;27.00;99.90
28546;DHT22;15749;49.606;8.738;2023-10-13T16:46:29;27.00;99.90
28546;DHT22;15749;49.606;8.738;2023-10-13T16:49:01;27.00;99.90
28546;DHT22;15749;49.606;8.738;2023-10-13T16:51:32;27.00;99.90
28546;DHT22;15749;49.606;8.738;2023-10-13T16:54:02;27.00;99.90
28546;DHT22;15749;49.606;8.738;2023-10-13T16:56:31;26.90;99.90
28546;DHT22;15749;49.606;8.738;2023-10-13T16:59:04;26.90;99.90
28546;DHT22;15749;49.606;8.738;2023-10-13T17:01:35;26.90;99.90
28546;DHT22;15749;49.606;8.738;2023-10-13T17:04:05;26.90;99.90
28546;DHT22;15749;49.606;8.738;2023-10-13T17:06:35;26.90;99.90
28546;DHT22;15749;49.606;8.738;2023-10-13T17:09:04;26.80;99.90
28546;DHT22;15749;49.606;8.738;2023-10-13T17:11:39;26.80;99.90
28546;DHT22;15749;49.606;8.738;2023-10-13T17:14:11;26.80;99.90
28546;DHT22;15749;49.606;8.738;2023-10-13T17:16:40;26.80;99.90
28546;DHT22;15749;49.606;8.738;2023-10-13T17:19:11;26.70;99.90
28546;DHT22;15749;49.606;8.738;2023-10-13T17:21:42;26.70;99.90
28546;DHT22;15749;49.606;8.738;2023-10-13T17:24:13;26.70;99.90
28546;DHT22;15749;49.606;8.738;2023-10-13T17:26:43;26.70;99.90
28546;DHT22;15749;49.606;8.738;2023-10-13T17:29:14;26.70;99.90
28546;DHT22;15749;49.606;8.738;2023-10-13T17:31:44;26.60;99.90
28546;DHT22;15749;49.606;8.738;2023-10-13T17:34:16;26.60;99.90
28546;DHT22;15749;49.606;8.738;2023-10-13T17:36:47;26.50;99.90
28546;DHT22;15749;49.606;8.738;2023-10-13T17:39:17;26.50;99.90
28546;DHT22;15749;49.606;8.738;2023-10-13T17:41:47;26.50;99.90
28546;DHT22;15749;49.606;8.738;2023-10-13T17:44:16;26.40;99.90
28546;DHT22;15749;49.606;8.738;2023-10-13T17:46:45;26.40;99.90
28546;DHT22;15749;49.606;8.738;2023-10-13T17:49:15;26.40;99.90
28546;DHT22;15749;49.606;8.738;2023-10-13T17:51:49;26.30;99.90
28546;DHT22;15749;49.606;8.738;2023-10-13T17:54:19;26.30;99.90
28546;DHT22;15749;49.606;8.738;2023-10-13T17:56:49;26.30;99.90
28546;DHT22;15749;49.606;8.738;2023-10-13T17:59:18;26.20;99.90
28546;DHT22;15749;49.606;8.738;2023-10-13T18:01:47;26.20;99.90
28546;DHT22;15749;49.606;8.738;2023-10-13T18:04:17;26.20;99.90
28546;DHT22;15749;49.606;8.738;2023-10-13T18:06:48;26.10;99.90
28546;DHT22;15749;49.606;8.738;2023-10-13T18:09:20;26.10;99.90
28546;DHT22;15749;49.606;8.738;2023-10-13T18:11:50;26.10;99.90
28546;DHT22;15749;49.606;8.738;2023-10-13T18:14:20;26.00;99.90
28546;DHT22;15749;49.606;8.738;2023-10-13T18:16:49;26.00;99.90
28546;DHT22;15749;49.606;8.738;2023-10-13T18:19:18;26.00;99.90
28546;DHT22;15749;49.606;8.738;2023-10-13T18:21:56;26.00;99.90
28546;DHT22;15749;49.606;8.738;2023-10-13T18:24:26;26.00;99.90
28546;DHT22;15749;49.606;8.738;2023-10-13T18:26:56;26.00;99.90
28546;DHT22;15749;49.606;8.738;2023-10-13T18:29:25;25.90;99.90
28546;DHT22;15749;49.606;8.738;2023-10-13T18:31:54;25.90;99.90
28546;DHT22;15749;49.606;8.738;2023-10-13T18:34:23;25.90;99.90
28546;DHT22;15749;49.606;8.738;2023-10-13T18:36:52;25.90;99.90
28546;DHT22;15749;49.606;8.738;2023-10-13T18:39:23;25.90;99.90
28546;DHT22;15749;49.606;8.738;2023-10-13T18:42:02;25.90;99.90
28546;DHT22;15749;49.606;8.738;2023-10-13T18:44:33;25.90;99.90
28546;DHT22;15749;49.606;8.738;2023-10-13T18:47:02;25.90;99.90
28546;DHT22;15749;49.606;8.738;2023-10-13T18:49:31;25.90;99.90
28546;DHT22;15749;49.606;8.738;2023-10-13T18:52:00;25.90;99.90
28546;DHT22;15749;49.606;8.738;2023-10-13T18:54:31;25.90;99.90
28546;DHT22;15749;49.606;8.738;2023-10-13T18:57:00;26.00;99.90
28546;DHT22;15749;49.606;8.738;2023-10-13T18:59:31;26.00;99.90
28546;DHT22;15749;49.606;8.738;2023-10-13T19:02:01;26.00;99.90
28546;DHT22;15749;49.606;8.738;2023-10-13T19:04:30;26.00;99.90
28546;DHT22;15749;49.606;8.738;2023-10-13T19:07:02;26.00;99.90
28546;DHT22;15749;49.606;8.738;2023-10-13T19:09:34;26.00;99.90
28546;DHT22;15749;49.606;8.738;2023-10-13T19:12:06;26.00;99.90
28546;DHT22;15749;49.606;8.738;2023-10-13T19:14:35;26.00;99.90
28546;DHT22;15749;49.606;8.738;2023-10-13T19:17:06;26.00;99.90
28546;DHT22;15749;49.606;8.738;2023-10-13T19:19:35;26.00;99.90
28546;DHT22;15749;49.606;8.738;2023-10-13T19:22:04;26.00;99.90
28546;DHT22;15749;49.606;8.738;2023-10-13T19:24:35;26.10;99.90
28546;DHT22;15749;49.606;8.738;2023-10-13T19:27:04;26.10;99.90
28546;DHT22;15749;49.606;8.738;2023-10-13T19:29:33;26.10;99.90
28546;DHT22;15749;49.606;8.738;2023-10-13T19:32:03;26.10;99.90
28546;DHT22;15749;49.606;8.738;2023-10-13T19:34:36;26.10;99.90
28546;DHT22;15749;49.606;8.738;2023-10-13T19:37:09;26.10;99.90
28546;DHT22;15749;49.606;8.738;2023-10-13T19:39:42;26.20;99.90
28546;DHT22;15749;49.606;8.738;2023-10-13T19:42:11;26.20;99.90
28546;DHT22;15749;49.606;8.738;2023-10-13T19:44:41;26.20;99.90
28546;DHT22;15749;49.606;8.738;2023-10-13T19:47:12;26.20;99.90
28546;DHT22;15749;49.606;8.738;2023-10-13T19:49:41;26.20;99.90
28546;DHT22;15749;49.606;8.738;2023-10-13T19:52:13;26.20;99.90
28546;DHT22;15749;49.606;8.738;2023-10-13T19:54:46;26.20;99.90
28546;DHT22;15749;49.606;8.738;2023-10-13T19:57:15;26.20;99.90
28546;DHT22;15749;49.606;8.738;2023-10-13T19:59:44;26.20;99.90
28546;DHT22;15749;49.606;8.738;2023-10-13T20:02:13;26.20;99.90
28546;DHT22;15749;49.606;8.738;2023-10-13T20:04:43;26.20;99.90
28546;DHT22;15749;49.606;8.738;2023-10-13T20:07:12;26.20;99.90
28546;DHT22;15749;49.606;8.738;2023-10-13T20:09:45;26.20;99.90